Time;durP1;ratioP1;P1;durP2;ratioP2;P2;SDS_P1;SDS_P2;PMS_P1;PMS_P2;Temp;Humidity;BMP_temperature;BMP_pressure;BME280_temperature;BME280_humidity;BME280_pressure;Samples;Min_cycle;Max_cycle;Signal;HPM_P1;HPM_P2
2022/11/29 00:02:51;;;;;;;26.10;13.30;;;;;;;-145.68;100.00;63218.00;10411955;28;20219;-60
2022/11/29 00:07:52;;;;;;;27.37;16.23;;;;;;;-145.68;100.00;63218.00;10412364;28;20323;-61
2022/11/29 00:12:52;;;;;;;25.30;14.70;;;;;;;-145.68;100.00;63218.00;10411430;28;20678;-62
2022/11/29 00:17:53;;;;;;;27.90;15.23;;;;;;;-145.68;100.00;63218.00;10412016;28;20189;-61
2022/11/29 00:22:53;;;;;;;23.10;14.00;;;;;;;-145.68;100.00;63218.00;10411881;28;20323;-61
2022/11/29 00:27:53;;;;;;;24.27;13.67;;;;;;;-145.68;100.00;63218.00;10409596;28;20220;-61
2022/11/29 00:32:54;;;;;;;23.33;12.47;;;;;;;-145.68;100.00;63218.00;10405029;28;20196;-61
2022/11/29 00:37:54;;;;;;;24.07;12.83;;;;;;;-145.68;100.00;63218.00;10410049;28;20189;-61
2022/11/29 00:42:55;;;;;;;23.70;12.47;;;;;;;-145.68;100.00;63218.00;10409991;28;20188;-61
2022/11/29 00:47:55;;;;;;;21.37;12.30;;;;;;;-145.68;100.00;63218.00;10410168;28;20725;-61
2022/11/29 00:52:55;;;;;;;26.70;15.93;;;;;;;-145.68;100.00;63218.00;10409825;28;20196;-61
2022/11/29 00:57:56;;;;;;;28.53;15.87;;;;;;;-145.68;100.00;63218.00;10409267;28;20268;-61
2022/11/29 01:02:56;;;;;;;27.03;14.90;;;;;;;-145.68;100.00;63218.00;10408680;28;20192;-60
2022/11/29 01:07:56;;;;;;;20.23;12.03;;;;;;;-145.68;100.00;63218.00;10408073;28;20235;-60
2022/11/29 01:12:57;;;;;;;23.97;14.20;;;;;;;-145.68;100.00;63218.00;10408889;28;20200;-60
2022/11/29 01:17:57;;;;;;;30.90;15.20;;;;;;;-145.68;100.00;63218.00;10408890;28;20757;-60
2022/11/29 01:22:58;;;;;;;27.90;15.97;;;;;;;-145.68;100.00;63218.00;10408201;28;20339;-60
2022/11/29 01:27:58;;;;;;;24.73;12.87;;;;;;;-145.68;100.00;63218.00;10408253;28;20247;-60
2022/11/29 01:32:58;;;;;;;23.87;14.13;;;;;;;-145.68;100.00;63218.00;10408328;28;20196;-60
2022/11/29 01:37:59;;;;;;;30.37;16.60;;;;;;;-145.68;100.00;63218.00;10407723;28;20192;-61
2022/11/29 01:42:59;;;;;;;19.07;9.20;;;;;;;-145.68;100.00;63218.00;10407451;28;20287;-60
2022/11/29 01:47:59;;;;;;;28.70;16.57;;;;;;;-145.68;100.00;63218.00;10407574;28;20235;-60
2022/11/29 01:53:00;;;;;;;24.43;13.93;;;;;;;-145.68;100.00;63218.00;10407503;28;20193;-59
2022/11/29 01:58:00;;;;;;;19.43;11.00;;;;;;;-145.68;100.00;63218.00;10389034;28;20184;-61
2022/11/29 02:03:07;;;;;;;28.03;16.90;;;;;;;-145.68;100.00;63218.00;10405997;28;20292;-61
2022/11/29 02:08:10;;;;;;;23.67;10.90;;;;;;;-145.68;100.00;63218.00;10387892;28;20291;-61
2022/11/29 02:13:37;;;;;;;28.30;16.40;;;;;;;-145.68;100.00;63218.00;10406784;28;20624;-61
2022/11/29 02:18:59;;;;;;;23.03;14.53;;;;;;;-145.68;100.00;63218.00;10388985;28;20227;-61
2022/11/29 02:24:11;;;;;;;23.83;14.80;;;;;;;-145.68;100.00;63218.00;10388697;28;20207;-61
2022/11/29 02:29:26;;;;;;;24.47;14.57;;;;;;;-145.68;100.00;63218.00;10406181;28;20252;-61
2022/11/29 02:34:39;;;;;;;24.87;13.60;;;;;;;-145.68;100.00;63218.00;10388904;28;20187;-61
2022/11/29 02:39:51;;;;;;;22.70;13.30;;;;;;;-145.68;100.00;63218.00;10388005;28;20220;-61
2022/11/29 02:45:05;;;;;;;22.00;13.37;;;;;;;-145.68;100.00;63218.00;10406143;28;20204;-61
2022/11/29 02:50:11;;;;;;;21.73;13.93;;;;;;;-145.68;100.00;63218.00;10405589;28;20227;-61
2022/11/29 02:55:27;;;;;;;20.63;13.10;;;;;;;-145.68;100.00;63218.00;10396140;28;20365;-61
2022/11/29 03:00:28;;;;;;;24.50;14.10;;;;;;;-145.68;100.00;63218.00;10414523;28;20342;-61
2022/11/29 03:05:31;;;;;;;19.50;11.17;;;;;;;-145.68;100.00;63218.00;10412535;28;20243;-61
2022/11/29 03:10:56;;;;;;;25.60;13.70;;;;;;;-145.68;100.00;63218.00;10413490;28;20653;-61
2022/11/29 03:16:01;;;;;;;25.03;12.33;;;;;;;-145.68;100.00;63218.00;10413450;28;20192;-61
2022/11/29 03:21:18;;;;;;;24.43;14.07;;;;;;;-145.68;100.00;63218.00;10395709;28;20951;-60
2022/11/29 03:26:33;;;;;;;25.00;14.13;;;;;;;-145.68;100.00;63218.00;10395335;28;20231;-61
2022/11/29 03:31:36;;;;;;;24.40;13.77;;;;;;;-145.68;100.00;63218.00;10395754;28;20291;-61
2022/11/29 03:36:44;;;;;;;28.07;16.53;;;;;;;-145.68;100.00;63218.00;10394450;28;20192;-61
2022/11/29 03:41:52;;;;;;;26.70;15.00;;;;;;;-145.68;100.00;63218.00;10395352;28;20215;-61
2022/11/29 03:46:59;;;;;;;26.30;14.53;;;;;;;-145.68;100.00;63218.00;10394739;28;20307;-61
2022/11/29 03:52:07;;;;;;;29.07;16.10;;;;;;;-145.68;100.00;63218.00;10394314;28;20319;-61
2022/11/29 03:57:07;;;;;;;26.73;15.03;;;;;;;-145.68;100.00;63218.00;10394163;28;20192;-61
2022/11/29 04:02:23;;;;;;;28.40;16.97;;;;;;;-145.68;100.00;63218.00;10409792;28;20618;-61
2022/11/29 04:07:29;;;;;;;29.50;17.70;;;;;;;-145.68;100.00;63218.00;10405065;28;20212;-60
2022/11/29 04:12:33;;;;;;;25.27;16.17;;;;;;;-145.68;100.00;63218.00;10403585;28;20323;-61
2022/11/29 04:17:42;;;;;;;23.00;14.00;;;;;;;-145.68;100.00;63218.00;10403427;28;20217;-60
2022/11/29 04:23:16;;;;;;;21.53;12.47;;;;;;;-145.68;100.00;63218.00;10432311;28;20231;-61
2022/11/29 04:28:35;;;;;;;25.27;14.27;;;;;;;-145.68;100.00;63218.00;10426765;28;20756;-61
2022/11/29 04:33:58;;;;;;;21.17;12.63;;;;;;;-145.68;100.00;63218.00;10444535;28;20689;-60
2022/11/29 04:39:14;;;;;;;18.73;12.60;;;;;;;-145.68;100.00;63218.00;10427012;28;20563;-60
2022/11/29 04:44:23;;;;;;;16.40;10.07;;;;;;;-145.68;100.00;63218.00;10427101;28;20226;-61
2022/11/29 04:49:39;;;;;;;22.63;14.27;;;;;;;-145.68;100.00;63218.00;10443792;28;20578;-59
2022/11/29 04:54:49;;;;;;;13.33;7.80;;;;;;;-145.68;100.00;63218.00;10426289;28;20196;-61
2022/11/29 05:00:00;;;;;;;20.27;12.60;;;;;;;-145.68;100.00;63218.00;10444252;28;20635;-61
2022/11/29 05:05:17;;;;;;;16.60;8.80;;;;;;;-145.68;100.00;63218.00;10426601;28;20200;-60
2022/11/29 05:10:32;;;;;;;23.27;13.97;;;;;;;-145.68;100.00;63218.00;10431844;28;20220;-61
2022/11/29 05:15:44;;;;;;;23.40;12.33;;;;;;;-145.68;100.00;63218.00;10432460;28;20258;-61
2022/11/29 05:20:59;;;;;;;22.60;13.50;;;;;;;-145.68;100.00;63218.00;10429715;28;20623;-61
2022/11/29 05:26:14;;;;;;;20.37;11.50;;;;;;;-145.68;100.00;63218.00;10391262;28;20343;-61
2022/11/29 05:31:44;;;;;;;18.83;12.17;;;;;;;-145.68;100.00;63218.00;10409139;28;20306;-61
2022/11/29 05:36:47;;;;;;;23.17;14.33;;;;;;;-145.68;100.00;63218.00;10408404;28;20203;-61
2022/11/29 05:42:00;;;;;;;23.60;13.43;;;;;;;-145.68;100.00;63218.00;10391220;28;20219;-61
2022/11/29 05:47:02;;;;;;;24.77;15.43;;;;;;;-145.68;100.00;63218.00;10407947;28;20228;-61
2022/11/29 05:52:21;;;;;;;23.87;14.00;;;;;;;-145.68;100.00;63218.00;10408536;28;20212;-61
2022/11/29 05:57:36;;;;;;;18.10;10.27;;;;;;;-145.68;100.00;63218.00;10408363;28;20201;-60
2022/11/29 06:03:11;;;;;;;19.23;12.23;;;;;;;-145.68;100.00;63218.00;10389591;28;20223;-61
2022/11/29 06:08:30;;;;;;;16.93;10.37;;;;;;;-145.68;100.00;63218.00;10385352;28;21557;-60
2022/11/29 06:13:55;;;;;;;23.40;13.17;;;;;;;-145.68;100.00;63218.00;10390051;28;20201;-61
2022/11/29 06:19:26;;;;;;;20.90;12.07;;;;;;;-145.68;100.00;63218.00;10406670;28;20714;-61
2022/11/29 06:24:36;;;;;;;21.40;12.63;;;;;;;-145.68;100.00;63218.00;10452000;23;20244;-63
2022/11/29 06:30:03;;;;;;;16.80;8.97;;;;;;;-145.68;100.00;63218.00;10448623;28;20284;-61
2022/11/29 06:35:08;;;;;;;18.13;9.10;;;;;;;-145.68;100.00;63218.00;10435822;28;20220;-63
2022/11/29 06:40:11;;;;;;;15.87;10.57;;;;;;;-145.68;100.00;63218.00;10448803;28;20188;-61
2022/11/29 06:45:13;;;;;;;22.23;12.43;;;;;;;-145.68;100.00;63218.00;10447176;28;20212;-63
2022/11/29 06:50:39;;;;;;;30.87;17.77;;;;;;;-145.68;100.00;63218.00;10448442;28;20200;-64
2022/11/29 06:56:15;;;;;;;18.00;11.17;;;;;;;-145.68;100.00;63218.00;10425202;28;20330;-63
2022/11/29 07:01:38;;;;;;;19.03;11.33;;;;;;;-145.68;100.00;63218.00;10446419;28;20211;-63
2022/11/29 07:06:39;;;;;;;19.73;12.40;;;;;;;-145.68;100.00;63218.00;10445669;28;20241;-62
2022/11/29 07:11:40;;;;;;;18.60;10.10;;;;;;;-145.68;100.00;63218.00;10445926;28;20568;-64
2022/11/29 07:17:18;;;;;;;20.07;10.47;;;;;;;-145.68;100.00;63218.00;10443290;28;20215;-63
2022/11/29 07:22:49;;;;;;;21.67;12.03;;;;;;;-145.68;100.00;63218.00;10428358;28;20235;-64
2022/11/29 07:27:59;;;;;;;18.43;9.27;;;;;;;-145.68;100.00;63218.00;10445191;28;20231;-66
2022/11/29 07:33:21;;;;;;;14.30;8.83;;;;;;;-145.68;100.00;63218.00;10427076;28;20227;-62
2022/11/29 07:38:40;;;;;;;15.23;10.37;;;;;;;-145.68;100.00;63218.00;10453712;28;20196;-65
2022/11/29 07:43:56;;;;;;;19.50;10.97;;;;;;;-145.68;100.00;63218.00;10452724;28;20211;-63
2022/11/29 07:48:57;;;;;;;18.67;10.50;;;;;;;-145.68;100.00;63218.00;10435493;28;20215;-64
2022/11/29 07:53:57;;;;;;;17.07;10.87;;;;;;;-145.68;100.00;63218.00;10451861;28;20216;-65
2022/11/29 07:58:58;;;;;;;11.03;5.73;;;;;;;-145.68;100.00;63218.00;10452941;28;20934;-65
2022/11/29 08:03:58;;;;;;;14.33;9.33;;;;;;;-145.68;100.00;63218.00;10450491;28;20623;-65
2022/11/29 08:08:59;;;;;;;11.83;7.27;;;;;;;-145.68;100.00;63218.00;10434676;28;20219;-65
2022/11/29 08:14:01;;;;;;;12.10;8.47;;;;;;;-145.68;100.00;63218.00;10448684;28;20216;-64
2022/11/29 08:19:01;;;;;;;13.60;7.83;;;;;;;-145.68;100.00;63218.00;10449572;28;20181;-64
2022/11/29 08:24:02;;;;;;;10.03;7.00;;;;;;;-145.68;100.00;63218.00;10433410;28;20255;-65
2022/11/29 08:29:02;;;;;;;12.37;7.87;;;;;;;-145.68;100.00;63218.00;10425985;28;20280;-65
2022/11/29 08:34:05;;;;;;;8.07;4.77;;;;;;;-145.68;100.00;63218.00;10423454;28;20293;-65
2022/11/29 08:39:05;;;;;;;12.13;6.60;;;;;;;-145.68;100.00;63218.00;10445618;28;20194;-64
2022/11/29 08:44:06;;;;;;;7.40;5.03;;;;;;;-145.68;100.00;63218.00;10449151;28;20214;-63
2022/11/29 08:49:07;;;;;;;8.20;5.90;;;;;;;-145.68;100.00;63218.00;10448296;28;20804;-65
2022/11/29 08:54:07;;;;;;;10.00;6.10;;;;;;;-145.68;100.00;63218.00;10444102;28;20223;-64
2022/11/29 08:59:07;;;;;;;10.70;7.17;;;;;;;-145.68;100.00;63218.00;10449151;28;20207;-65
2022/11/29 09:04:09;;;;;;;8.60;5.57;;;;;;;-145.68;100.00;63218.00;10447415;28;20215;-63
2022/11/29 09:09:10;;;;;;;8.83;5.63;;;;;;;-145.68;100.00;63218.00;10446420;28;20220;-65
2022/11/29 09:14:14;;;;;;;8.67;5.67;;;;;;;-145.68;100.00;63218.00;10447345;28;20214;-63
2022/11/29 09:19:14;;;;;;;7.13;4.77;;;;;;;-145.68;100.00;63218.00;10447136;28;20184;-65
2022/11/29 09:24:14;;;;;;;7.53;5.83;;;;;;;-145.68;100.00;63218.00;10446282;28;20243;-65
2022/11/29 09:29:15;;;;;;;9.63;6.67;;;;;;;-145.68;100.00;63218.00;10447546;28;20208;-60
2022/11/29 09:34:17;;;;;;;9.23;6.20;;;;;;;-145.68;100.00;63218.00;10446938;28;20228;-64
2022/11/29 09:39:17;;;;;;;9.57;5.27;;;;;;;-145.68;100.00;63218.00;10444913;28;20672;-63
2022/11/29 09:44:42;;;;;;;10.10;6.73;;;;;;;-145.68;100.00;63218.00;10446011;28;20250;-63
2022/11/29 09:50:10;;;;;;;7.07;3.80;;;;;;;-145.68;100.00;63218.00;10447502;28;20690;-63
2022/11/29 09:55:32;;;;;;;8.47;4.90;;;;;;;-145.68;100.00;63218.00;10427560;28;20216;-63
2022/11/29 10:00:36;;;;;;;7.50;4.83;;;;;;;-145.68;100.00;63218.00;10432063;28;20191;-64
2022/11/29 10:05:41;;;;;;;38.80;14.10;;;;;;;-145.68;100.00;63218.00;10422986;28;20215;-64
2022/11/29 10:10:45;;;;;;;32.40;12.43;;;;;;;-145.68;100.00;63218.00;10442475;28;20670;-63
2022/11/29 10:15:47;;;;;;;30.47;11.03;;;;;;;-145.68;100.00;63218.00;10427199;28;20204;-64
2022/11/29 10:20:49;;;;;;;10.63;5.47;;;;;;;-145.68;100.00;63218.00;10445838;28;20698;-64
2022/11/29 10:25:52;;;;;;;9.23;6.87;;;;;;;-145.68;100.00;63218.00;10426071;28;20236;-64
2022/11/29 10:30:54;;;;;;;8.43;6.00;;;;;;;-145.68;100.00;63218.00;10426189;28;20207;-64
2022/11/29 10:35:57;;;;;;;8.03;5.17;;;;;;;-145.68;100.00;63218.00;10444662;28;20212;-63
2022/11/29 10:41:07;;;;;;;9.47;6.57;;;;;;;-145.68;100.00;63218.00;10443875;28;20192;-64
2022/11/29 10:46:20;;;;;;;6.90;4.77;;;;;;;-145.68;100.00;63218.00;10444534;28;20235;-64
2022/11/29 10:51:20;;;;;;;10.23;7.10;;;;;;;-145.68;100.00;63218.00;10426026;28;20665;-64
2022/11/29 10:56:28;;;;;;;12.23;7.07;;;;;;;-145.68;100.00;63218.00;10422997;28;20195;-62
2022/11/29 11:01:35;;;;;;;8.83;5.47;;;;;;;-145.68;100.00;63218.00;10409320;28;20709;-62
2022/11/29 11:06:51;;;;;;;10.37;6.43;;;;;;;-145.68;100.00;63218.00;10414017;28;20824;-64
2022/11/29 11:11:53;;;;;;;10.27;6.83;;;;;;;-145.68;100.00;63218.00;10450073;28;20226;-62
2022/11/29 11:16:53;;;;;;;11.07;5.97;;;;;;;-145.68;100.00;63218.00;10432858;28;20249;-64
2022/11/29 11:21:59;;;;;;;12.57;7.53;;;;;;;-145.68;100.00;63218.00;10433515;28;20236;-63
2022/11/29 11:26:59;;;;;;;11.23;6.73;;;;;;;-145.68;100.00;63218.00;10452394;28;20236;-64
2022/11/29 11:32:00;;;;;;;14.30;9.10;;;;;;;-145.68;100.00;63218.00;10451322;28;20211;-65
2022/11/29 11:37:20;;;;;;;12.03;7.83;;;;;;;-145.68;100.00;63218.00;10432453;28;20188;-64
2022/11/29 11:42:36;;;;;;;13.60;6.53;;;;;;;-145.68;100.00;63218.00;10451963;28;20563;-64
2022/11/29 11:47:43;;;;;;;14.07;8.63;;;;;;;-145.68;100.00;63218.00;10450461;28;20277;-65
2022/11/29 11:52:51;;;;;;;14.23;8.20;;;;;;;-145.68;100.00;63218.00;10450102;28;21148;-63
2022/11/29 11:58:03;;;;;;;14.17;10.43;;;;;;;-145.68;100.00;63218.00;10448966;28;20183;-64
2022/11/29 12:03:06;;;;;;;12.90;8.60;;;;;;;-145.68;100.00;63218.00;10449806;28;20208;-64
2022/11/29 12:08:07;;;;;;;13.80;8.07;;;;;;;-145.68;100.00;63218.00;10430738;28;20268;-62
2022/11/29 12:13:17;;;;;;;14.07;8.60;;;;;;;-145.68;100.00;63218.00;10430624;28;20208;-64
2022/11/29 12:18:28;;;;;;;12.10;6.57;;;;;;;-145.68;100.00;63218.00;10429946;28;20697;-64
2022/11/29 12:23:39;;;;;;;13.13;7.37;;;;;;;-145.68;100.00;63218.00;10435157;23;20235;-76
2022/11/29 12:28:41;;;;;;;17.00;7.93;;;;;;;-145.68;100.00;63218.00;10426901;28;20219;-76
2022/11/29 12:33:48;;;;;;;13.07;8.83;;;;;;;-145.68;100.00;63218.00;10435299;28;20279;-77
2022/11/29 12:39:20;;;;;;;10.37;6.13;;;;;;;-145.68;100.00;63218.00;10452415;28;20200;-77
2022/11/29 12:44:23;;;;;;;16.20;10.77;;;;;;;-145.68;100.00;63218.00;10434749;28;20223;-76
2022/11/29 12:49:32;;;;;;;17.63;9.33;;;;;;;-145.68;100.00;63218.00;10450989;28;20838;-76
2022/11/29 12:54:42;;;;;;;17.33;10.20;;;;;;;-145.68;100.00;63218.00;10451833;28;20254;-76
2022/11/29 12:59:54;;;;;;;15.50;9.83;;;;;;;-145.68;100.00;63218.00;10434051;28;20242;-74
2022/11/29 13:05:14;;;;;;;14.87;9.47;;;;;;;-145.68;100.00;63218.00;10433169;28;20678;-76
2022/11/29 13:10:41;;;;;;;19.70;12.23;;;;;;;-145.68;100.00;63218.00;10433607;28;20314;-76
2022/11/29 13:15:53;;;;;;;15.17;9.43;;;;;;;-145.68;100.00;63218.00;10446357;28;20202;-76
2022/11/29 13:21:10;;;;;;;17.67;9.00;;;;;;;-145.68;100.00;63218.00;10450167;28;20201;-76
2022/11/29 13:26:11;;;;;;;17.87;10.90;;;;;;;-145.68;100.00;63218.00;10408407;28;20614;-76
2022/11/29 13:31:15;;;;;;;27.50;13.43;;;;;;;-145.68;100.00;63218.00;10408731;28;20203;-76
2022/11/29 13:36:33;;;;;;;21.13;11.07;;;;;;;-145.68;100.00;63218.00;10391282;28;21002;-76
2022/11/29 13:41:40;;;;;;;20.10;12.03;;;;;;;-145.68;100.00;63218.00;10391469;28;20215;-76
2022/11/29 13:47:06;;;;;;;19.00;10.57;;;;;;;-145.68;100.00;63218.00;10382940;28;20278;-76
2022/11/29 13:52:24;;;;;;;18.87;10.50;;;;;;;-145.68;100.00;63218.00;10393406;28;20192;-75
2022/11/29 13:57:24;;;;;;;20.97;10.07;;;;;;;-145.68;100.00;63218.00;10430967;28;20558;-76
2022/11/29 14:02:29;;;;;;;20.27;10.70;;;;;;;-145.68;100.00;63218.00;10431262;28;20206;-76
2022/11/29 14:07:29;;;;;;;19.23;11.17;;;;;;;-145.68;100.00;63218.00;10430754;28;20223;-76
2022/11/29 14:12:37;;;;;;;18.70;10.43;;;;;;;-145.68;100.00;63218.00;10448900;28;20200;-76
2022/11/29 14:18:08;;;;;;;20.37;12.63;;;;;;;-145.68;100.00;63218.00;10449125;28;20200;-76
2022/11/29 14:23:13;;;;;;;18.50;10.17;;;;;;;-145.68;100.00;63218.00;10410123;28;20236;-76
2022/11/29 14:28:13;;;;;;;20.53;11.63;;;;;;;-145.68;100.00;63218.00;10444875;28;20315;-76
2022/11/29 14:33:36;;;;;;;18.90;10.60;;;;;;;-145.68;100.00;63218.00;10444051;28;20191;-76
2022/11/29 14:38:53;;;;;;;23.70;14.23;;;;;;;-145.68;100.00;63218.00;10448248;28;20451;-74
2022/11/29 14:44:16;;;;;;;23.47;13.73;;;;;;;-145.68;100.00;63218.00;10422535;28;20241;-75
2022/11/29 14:49:24;;;;;;;34.93;18.13;;;;;;;-145.68;100.00;63218.00;10447998;28;20619;-76
2022/11/29 14:54:24;;;;;;;35.40;19.43;;;;;;;-145.68;100.00;63218.00;10430522;28;20195;-76
2022/11/29 14:59:43;;;;;;;21.60;12.70;;;;;;;-145.68;100.00;63218.00;10429557;28;20774;-76
2022/11/29 15:04:45;;;;;;;19.20;11.13;;;;;;;-145.68;100.00;63218.00;10439807;28;20252;-76
2022/11/29 15:09:48;;;;;;;28.20;15.20;;;;;;;-145.68;100.00;63218.00;10413633;28;20216;-76
2022/11/29 15:14:51;;;;;;;34.10;18.70;;;;;;;-145.68;100.00;63218.00;10410697;28;20256;-76
2022/11/29 15:20:29;;;;;;;28.33;16.40;;;;;;;-145.68;100.00;63218.00;10403281;28;20267;-76
2022/11/29 15:25:30;;;;;;;24.50;14.20;;;;;;;-145.68;100.00;63218.00;10403754;28;20232;-75
2022/11/29 15:30:41;;;;;;;69.90;35.57;;;;;;;-145.68;100.00;63218.00;10427521;28;20201;-75
2022/11/29 15:35:46;;;;;;;46.67;24.30;;;;;;;-145.68;100.00;63218.00;10401514;28;20191;-75
2022/11/29 15:40:52;;;;;;;38.33;18.20;;;;;;;-145.68;100.00;63218.00;10420717;28;20307;-75
2022/11/29 15:45:55;;;;;;;34.97;18.50;;;;;;;-145.68;100.00;63218.00;10425137;28;20963;-75
2022/11/29 15:50:59;;;;;;;26.73;15.67;;;;;;;-145.68;100.00;63218.00;10406102;28;20816;-76
2022/11/29 15:56:02;;;;;;;31.70;18.23;;;;;;;-145.68;100.00;63218.00;10409097;28;20192;-75
2022/11/29 16:01:03;;;;;;;35.30;21.17;;;;;;;-145.68;100.00;63218.00;10411700;28;20188;-74
2022/11/29 16:06:26;;;;;;;26.67;15.53;;;;;;;-145.68;100.00;63218.00;10435862;28;20222;-75
2022/11/29 16:11:29;;;;;;;29.97;16.67;;;;;;;-145.68;100.00;63218.00;10440092;28;20320;-75
2022/11/29 16:16:32;;;;;;;33.90;18.93;;;;;;;-145.68;100.00;63218.00;10415366;28;20189;-76
2022/11/29 16:21:33;;;;;;;28.97;17.23;;;;;;;-145.68;100.00;63218.00;10394544;28;20197;-76
2022/11/29 16:26:37;;;;;;;30.90;16.87;;;;;;;-145.68;100.00;63218.00;10376959;28;20232;-76
2022/11/29 16:31:37;;;;;;;35.83;18.77;;;;;;;-145.68;100.00;63218.00;10393871;28;20193;-75
2022/11/29 16:36:37;;;;;;;37.20;20.27;;;;;;;-145.68;100.00;63218.00;10418077;28;20212;-75
2022/11/29 16:41:38;;;;;;;31.20;16.73;;;;;;;-145.68;100.00;63218.00;10432106;28;20199;-75
2022/11/29 16:46:38;;;;;;;34.57;16.67;;;;;;;-145.68;100.00;63218.00;10414744;28;20215;-75
2022/11/29 16:51:46;;;;;;;31.97;16.97;;;;;;;-145.68;100.00;63218.00;10397608;28;20276;-75
2022/11/29 16:56:48;;;;;;;30.30;15.10;;;;;;;-145.68;100.00;63218.00;10401889;28;20180;-75
2022/11/29 17:01:48;;;;;;;30.47;15.33;;;;;;;-145.68;100.00;63218.00;10427637;28;20202;-75
2022/11/29 17:06:49;;;;;;;34.47;15.47;;;;;;;-145.68;100.00;63218.00;10450638;28;20681;-75
2022/11/29 17:11:53;;;;;;;30.10;16.70;;;;;;;-145.68;100.00;63218.00;10433118;28;20188;-75
2022/11/29 17:16:54;;;;;;;30.57;13.07;;;;;;;-145.68;100.00;63218.00;10451556;28;20219;-75
2022/11/29 17:21:54;;;;;;;34.23;18.57;;;;;;;-145.68;100.00;63218.00;10451485;28;20286;-75
2022/11/29 17:26:55;;;;;;;36.13;20.77;;;;;;;-145.68;100.00;63218.00;10451089;28;20703;-75
2022/11/29 17:31:55;;;;;;;32.33;16.73;;;;;;;-145.68;100.00;63218.00;10451475;28;20188;-76
2022/11/29 17:36:56;;;;;;;50.60;26.77;;;;;;;-145.68;100.00;63218.00;10450687;28;20211;-76
2022/11/29 17:41:56;;;;;;;39.83;18.20;;;;;;;-145.68;100.00;63218.00;10446625;28;20576;-75
2022/11/29 17:46:56;;;;;;;42.50;21.47;;;;;;;-145.68;100.00;63218.00;10429429;28;20261;-75
2022/11/29 17:51:57;;;;;;;34.60;17.20;;;;;;;-145.68;100.00;63218.00;10412216;28;20196;-76
2022/11/29 17:56:59;;;;;;;36.77;21.93;;;;;;;-145.68;100.00;63218.00;10408513;28;20200;-75
2022/11/29 18:02:00;;;;;;;33.43;16.37;;;;;;;-145.68;100.00;63218.00;10390075;28;20219;-75
2022/11/29 18:07:01;;;;;;;32.47;15.77;;;;;;;-145.68;100.00;63218.00;10407399;28;20578;-75
2022/11/29 18:12:02;;;;;;;30.97;16.97;;;;;;;-145.68;100.00;63218.00;10407415;28;20199;-76
2022/11/29 18:17:02;;;;;;;32.60;16.77;;;;;;;-145.68;100.00;63218.00;10428619;28;20770;-75
2022/11/29 18:22:02;;;;;;;31.57;17.00;;;;;;;-145.68;100.00;63218.00;10447254;28;20703;-76
2022/11/29 18:27:03;;;;;;;33.10;17.53;;;;;;;-145.68;100.00;63218.00;10442462;28;20242;-75
2022/11/29 18:32:03;;;;;;;32.63;17.17;;;;;;;-145.68;100.00;63218.00;10448297;28;20644;-75
2022/11/29 18:37:04;;;;;;;29.70;13.37;;;;;;;-145.68;100.00;63218.00;10447662;28;20204;-76
2022/11/29 18:42:04;;;;;;;34.73;17.30;;;;;;;-145.68;100.00;63218.00;10430194;28;20202;-76
2022/11/29 18:47:04;;;;;;;65.30;34.40;;;;;;;-145.68;100.00;63218.00;10447985;28;20766;-76
2022/11/29 18:52:05;;;;;;;47.73;24.03;;;;;;;-145.68;100.00;63218.00;10447358;28;20260;-75
2022/11/29 18:57:05;;;;;;;40.90;23.33;;;;;;;-145.68;100.00;63218.00;10447634;28;20187;-76
2022/11/29 19:02:06;;;;;;;37.70;19.97;;;;;;;-145.68;100.00;63218.00;10447723;28;20196;-75
2022/11/29 19:07:06;;;;;;;42.10;20.10;;;;;;;-145.68;100.00;63218.00;10447281;28;20223;-75
2022/11/29 19:12:06;;;;;;;43.53;21.33;;;;;;;-145.68;100.00;63218.00;10447458;28;20201;-75
2022/11/29 19:17:07;;;;;;;40.70;19.80;;;;;;;-145.68;100.00;63218.00;10447636;28;20180;-74
2022/11/29 19:22:07;;;;;;;37.43;15.50;;;;;;;-145.68;100.00;63218.00;10446235;28;20206;-75
2022/11/29 19:27:08;;;;;;;42.20;22.07;;;;;;;-145.68;100.00;63218.00;10447519;28;20224;-75
2022/11/29 19:32:08;;;;;;;41.67;20.20;;;;;;;-145.68;100.00;63218.00;10434460;28;20196;-76
2022/11/29 19:37:08;;;;;;;39.70;21.40;;;;;;;-145.68;100.00;63218.00;10454274;28;20204;-76
2022/11/29 19:42:09;;;;;;;41.07;20.90;;;;;;;-145.68;100.00;63218.00;10454688;28;20202;-75
2022/11/29 19:47:09;;;;;;;42.93;21.43;;;;;;;-145.68;100.00;63218.00;10453828;28;20219;-75
2022/11/29 19:52:10;;;;;;;44.40;23.63;;;;;;;-145.68;100.00;63218.00;10453805;28;20188;-75
2022/11/29 19:57:10;;;;;;;37.13;18.97;;;;;;;-145.68;100.00;63218.00;10442718;28;20187;-75
2022/11/29 20:02:10;;;;;;;41.93;20.30;;;;;;;-145.68;100.00;63218.00;10430614;28;20214;-76
2022/11/29 20:07:11;;;;;;;42.23;21.73;;;;;;;-145.68;100.00;63218.00;10429481;28;20219;-76
2022/11/29 20:12:11;;;;;;;37.97;20.70;;;;;;;-145.68;100.00;63218.00;10439320;28;20184;-76
2022/11/29 20:17:11;;;;;;;40.23;22.27;;;;;;;-145.68;100.00;63218.00;10431973;28;20229;-76
2022/11/29 20:22:12;;;;;;;41.33;21.70;;;;;;;-145.68;100.00;63218.00;10452247;28;20694;-75
2022/11/29 20:27:16;;;;;;;40.97;20.77;;;;;;;-145.68;100.00;63218.00;10452394;28;20564;-76
2022/11/29 20:32:16;;;;;;;43.00;20.03;;;;;;;-145.68;100.00;63218.00;10454226;28;20689;-75
2022/11/29 20:37:23;;;;;;;44.47;25.13;;;;;;;-145.68;100.00;63218.00;10434062;28;20196;-76
2022/11/29 20:42:43;;;;;;;37.63;18.53;;;;;;;-145.68;100.00;63218.00;10430038;28;20191;-76
2022/11/29 20:47:49;;;;;;;42.47;22.77;;;;;;;-145.68;100.00;63218.00;10430728;28;20222;-74
2022/11/29 20:53:19;;;;;;;45.00;21.83;;;;;;;-145.68;100.00;63218.00;10423157;28;20200;-74
2022/11/29 20:58:19;;;;;;;41.57;21.97;;;;;;;-145.68;100.00;63218.00;10432962;28;20183;-74
2022/11/29 21:03:21;;;;;;;43.30;22.20;;;;;;;-145.68;100.00;63218.00;10414741;28;20192;-75
2022/11/29 21:08:23;;;;;;;44.00;23.33;;;;;;;-145.68;100.00;63218.00;10422551;28;20735;-76
2022/11/29 21:13:24;;;;;;;46.63;23.43;;;;;;;-145.68;100.00;63218.00;10433334;28;20200;-76
2022/11/29 21:18:27;;;;;;;42.03;22.47;;;;;;;-145.68;100.00;63218.00;10452869;28;20202;-76
2022/11/29 21:23:51;;;;;;;35.57;16.83;;;;;;;-145.68;100.00;63218.00;10452078;28;20232;-74
2022/11/29 21:29:04;;;;;;;39.00;20.53;;;;;;;-145.68;100.00;63218.00;10453435;28;20686;-76
2022/11/29 21:34:05;;;;;;;42.90;22.10;;;;;;;-145.68;100.00;63218.00;10435444;28;20184;-76
2022/11/29 21:39:06;;;;;;;41.43;18.73;;;;;;;-145.68;100.00;63218.00;10453301;28;20691;-76
2022/11/29 21:44:07;;;;;;;50.13;23.47;;;;;;;-145.68;100.00;63218.00;10452503;28;20659;-75
2022/11/29 21:49:08;;;;;;;47.93;24.87;;;;;;;-145.68;100.00;63218.00;10453207;28;20224;-75
2022/11/29 21:54:08;;;;;;;49.97;25.07;;;;;;;-145.68;100.00;63218.00;10452064;28;20225;-73
2022/11/29 21:59:08;;;;;;;42.13;21.53;;;;;;;-145.68;100.00;63218.00;10452472;28;20194;-75
2022/11/29 22:04:09;;;;;;;43.10;21.90;;;;;;;-145.68;100.00;63218.00;10452327;28;20784;-76
2022/11/29 22:09:09;;;;;;;43.57;22.40;;;;;;;-145.68;100.00;63218.00;10451868;28;20226;-75
2022/11/29 22:14:12;;;;;;;46.00;23.30;;;;;;;-145.68;100.00;63218.00;10451819;28;20648;-74
2022/11/29 22:19:15;;;;;;;45.30;23.43;;;;;;;-145.68;100.00;63218.00;10451870;28;20266;-75
2022/11/29 22:24:17;;;;;;;44.30;23.03;;;;;;;-145.68;100.00;63218.00;10451199;28;20238;-75
2022/11/29 22:29:18;;;;;;;40.87;21.30;;;;;;;-145.68;100.00;63218.00;10417112;28;20208;-75
2022/11/29 22:34:19;;;;;;;40.57;21.10;;;;;;;-145.68;100.00;63218.00;10451601;28;20191;-76